Nova Timboteua, Brazil
Current Conditions -  °F | °C
As of 8:00 AM on Thursday 27 Nov 2014 (Local Time) from SBBE Reporting Station
Scattered Clouds Scattered Clouds  
Wind Chill: 81°   Ceiling: Unl
Heat Index: 85°   Visibility: 6mi
Dew Point: 72°   Wind: 8mph
Humidity: 74%   Direction: 70°ENE
Pressure: 29.85"   Gusts: NA
Location:  1.21°S, 47.4°W
Report Text: SBBE 271100Z 07007KT 9999 FEW018 SCT100 27/22 Q1011
Loading
Personal Weather Stations






























Interactive Weather Map New forecast layout! Learn more

10-Day Weather Forecast

Advertisements
Track Severe Weather on mobile